New York/Central Park, New York
Current Conditions -  °F | °C
As of 4:51 AM on Sunday 23 Nov 2014 (Local Time) from KNYC Reporting Station
Overcast Overcast  
Wind Chill: 44°   Ceiling: 11000
Heat Index: 44°   Visibility: 10mi
Dew Point: 22°   Wind: 3mph
Humidity: 42%   Direction: NA
Pressure: 30.2"   Gusts: 18mph
Location:  40.79°N, 73.96°W
Report Text: KNYC 230951Z AUTO VRB03G16KT 10SM OVC110 07/M06 A3020 RMK AO2 SLP218 T00671056 $
Loading
Personal Weather Stations






























Interactive Weather Map New forecast layout! Learn more

10-Day Weather Forecast

Advertisements
Track Severe Weather on mobile